Time;durP1;ratioP1;P1;durP2;ratioP2;P2;SDS_P1;SDS_P2;PMS_P1;PMS_P2;Temp;Humidity;BMP_temperature;BMP_pressure;BME280_temperature;BME280_humidity;BME280_pressure;Samples;Min_cycle;Max_cycle;Signal;HPM_P1;HPM_P2
2023/04/23 00:00:47;;;;;;;0.10;0.10;;;;;;;-145.06;100.00;95580.66;10434666;28;20016;-77
2023/04/23 00:05:50;;;;;;;0.10;0.10;;;;;;;-145.06;100.00;95601.09;10438503;28;20029;-77
2023/04/23 00:10:51;;;;;;;0.10;0.10;;;;;;;-145.06;100.00;95666.59;10439717;28;20129;-76
2023/04/23 00:15:51;;;;;;;0.08;0.08;;;;;;;-145.06;100.00;95621.56;10438000;28;20070;-76
2023/04/23 00:20:52;;;;;;;0.10;0.10;;;;;;;-145.06;100.00;95654.31;10411502;28;20070;-76
2023/04/23 00:25:52;;;;;;;0.10;0.10;;;;;;;-145.06;100.00;95644.09;10450005;28;20017;-76
2023/04/23 00:30:53;;;;;;;0.10;0.10;;;;;;;-145.06;100.00;95699.34;10438033;28;20220;-76
2023/04/23 00:35:53;;;;;;;0.00;0.00;;;;;;;-145.06;100.00;95699.34;10414915;28;20021;-76
2023/04/23 00:40:53;;;;;;;0.10;0.10;;;;;;;-145.06;100.00;95793.47;10431573;28;20056;-76
2023/04/23 00:45:54;;;;;;;0.10;0.10;;;;;;;-145.06;100.00;95727.97;10441981;28;20071;-77
2023/04/23 00:51:12;;;;;;;0.10;0.10;;;;;;;-145.06;100.00;95730.03;10444101;28;20286;-76
2023/04/23 00:56:13;;;;;;;0.10;0.10;;;;;;;-145.06;100.00;95748.44;10414923;28;20029;-77
2023/04/23 01:01:14;;;;;;;0.10;0.10;;;;;;;-145.06;100.00;95762.78;10431218;28;20016;-76
2023/04/23 01:06:15;;;;;;;0.10;0.10;;;;;;;-145.06;100.00;95732.06;10449397;28;20079;-76
2023/04/23 01:11:16;;;;;;;0.00;0.00;;;;;;;-145.06;100.00;95768.91;10434743;28;20443;-75
2023/04/23 01:16:16;;;;;;;0.10;0.10;;;;;;;-145.06;100.00;95863.06;10432207;28;20079;-74
2023/04/23 01:21:17;;;;;;;0.10;0.10;;;;;;;-145.06;100.00;95840.53;10427461;28;20036;-76
2023/04/23 01:26:18;;;;;;;0.00;0.00;;;;;;;-145.06;100.00;95897.84;10444016;28;20323;-76
2023/04/23 01:31:18;;;;;;;0.10;0.10;;;;;;;-145.06;100.00;95906.03;10432056;28;20338;-76
2023/04/23 01:36:19;;;;;;;0.00;0.00;;;;;;;-145.06;100.00;95891.69;10432128;28;20017;-76
2023/04/23 01:41:19;;;;;;;0.10;0.10;;;;;;;-145.06;100.00;95891.69;10441020;28;20392;-75
2023/04/23 01:46:20;;;;;;;0.10;0.10;;;;;;;-145.06;100.00;95969.47;10441473;28;20025;-75
2023/04/23 01:51:22;;;;;;;0.10;0.10;;;;;;;-145.06;100.00;95975.59;10435047;28;20020;-76
2023/04/23 01:56:26;;;;;;;0.10;0.10;;;;;;;-145.06;100.00;95991.97;10414985;28;20017;-76
2023/04/23 02:01:41;;;;;;;0.00;0.00;;;;;;;-145.06;100.00;96071.81;10429524;28;20048;-75
2023/04/23 02:06:45;;;;;;;0.10;0.10;;;;;;;-145.06;100.00;95991.97;10448761;28;20107;-76
2023/04/23 02:11:46;;;;;;;0.00;0.00;;;;;;;-145.06;100.00;96010.41;10441348;28;20021;-75
2023/04/23 02:16:46;;;;;;;0.10;0.10;;;;;;;-145.06;100.00;95989.94;10447643;28;20414;-75
2023/04/23 02:21:47;;;;;;;0.10;0.10;;;;;;;-145.06;100.00;96018.59;10431007;28;20045;-75
2023/04/23 02:26:47;;;;;;;0.10;0.10;;;;;;;-145.06;100.00;95977.66;10448213;28;20025;-75
2023/04/23 02:31:48;;;;;;;0.10;0.10;;;;;;;-145.06;100.00;96051.34;10447634;28;20019;-75
2023/04/23 02:36:48;;;;;;;0.10;0.10;;;;;;;-145.06;100.00;96018.59;10429849;28;20484;-75
2023/04/23 02:41:48;;;;;;;0.10;0.10;;;;;;;-145.06;100.00;96080.00;10433936;28;20056;-75
2023/04/23 02:46:49;;;;;;;0.00;0.00;;;;;;;-145.06;100.00;96090.22;10420972;28;20100;-75
2023/04/23 02:51:49;;;;;;;0.10;0.10;;;;;;;-145.06;100.00;96055.44;10432568;28;20028;-76
2023/04/23 02:56:50;;;;;;;0.10;0.10;;;;;;;-145.06;100.00;96061.56;10431014;28;20510;-76
2023/04/23 03:01:50;;;;;;;0.10;0.10;;;;;;;-145.06;100.00;96075.91;10437327;28;20038;-76
2023/04/23 03:06:51;;;;;;;0.10;0.10;;;;;;;-145.06;100.00;96104.53;10423823;28;20510;-77
2023/04/23 03:11:51;;;;;;;0.00;0.00;;;;;;;-145.06;100.00;96051.34;10434074;28;20056;-77
2023/04/23 03:16:51;;;;;;;0.10;0.10;;;;;;;-145.06;100.00;96016.53;10441012;28;20029;-76
2023/04/23 03:21:52;;;;;;;0.10;0.10;;;;;;;-145.06;100.00;95946.97;10439138;28;20025;-76
2023/04/23 03:26:52;;;;;;;0.10;0.10;;;;;;;-145.06;100.00;95955.16;10412175;28;20384;-76
2023/04/23 03:31:53;;;;;;;0.10;0.10;;;;;;;-145.06;100.00;95967.44;10438683;28;20025;-76
2023/04/23 03:36:53;;;;;;;0.00;0.00;;;;;;;-145.06;100.00;95991.97;10447389;28;20027;-75
2023/04/23 03:41:53;;;;;;;0.10;0.10;;;;;;;-145.06;100.00;95944.91;10411897;28;20116;-77
2023/04/23 03:46:54;;;;;;;0.10;0.10;;;;;;;-145.06;100.00;95965.38;10446713;28;20025;-75
2023/04/23 03:51:54;;;;;;;0.00;0.00;;;;;;;-145.06;100.00;95936.72;10432434;28;20021;-77
2023/04/23 03:56:56;;;;;;;0.10;0.10;;;;;;;-145.06;100.00;96030.88;10437221;28;20312;-76
2023/04/23 04:01:57;;;;;;;0.00;0.00;;;;;;;-145.06;100.00;95975.59;10430858;28;20028;-77
2023/04/23 04:07:00;;;;;;;0.00;0.00;;;;;;;-145.06;100.00;96006.31;10425084;28;20048;-77
2023/04/23 04:12:01;;;;;;;0.00;0.00;;;;;;;-145.06;100.00;96022.69;10446969;28;20547;-76
2023/04/23 04:17:01;;;;;;;0.00;0.00;;;;;;;-145.06;100.00;95979.69;10446237;28;20099;-76
2023/04/23 04:22:02;;;;;;;0.10;0.10;;;;;;;-145.06;100.00;95994.03;10416927;28;20032;-77
2023/04/23 04:27:04;;;;;;;0.05;0.05;;;;;;;-145.06;100.00;96055.44;10437690;28;20480;-76
2023/04/23 04:32:04;;;;;;;0.10;0.10;;;;;;;-145.06;100.00;96055.44;10436158;28;20025;-76
2023/04/23 04:37:04;;;;;;;0.00;0.00;;;;;;;-145.06;100.00;96047.25;10437563;28;20029;-77
2023/04/23 04:42:06;;;;;;;0.00;0.00;;;;;;;-145.06;100.00;96104.53;10429265;28;20049;-76
2023/04/23 04:47:06;;;;;;;0.00;0.00;;;;;;;-145.06;100.00;96030.88;10429618;28;20283;-77
2023/04/23 04:52:07;;;;;;;0.00;0.00;;;;;;;-145.06;100.00;95989.94;10422147;28;20443;-77
2023/04/23 04:57:08;;;;;;;0.10;0.10;;;;;;;-145.06;100.00;95852.81;10420329;28;20017;-77
2023/04/23 05:02:08;;;;;;;0.00;0.00;;;;;;;-145.06;100.00;95818.03;10453167;28;20045;-77
2023/04/23 05:07:08;;;;;;;0.10;0.10;;;;;;;-145.06;100.00;95744.34;10444564;28;20399;-77
2023/04/23 05:12:09;;;;;;;0.00;0.00;;;;;;;-145.06;100.00;95433.31;10444798;28;20481;-77
2023/04/23 05:17:10;;;;;;;0.00;0.00;;;;;;;-145.06;100.00;95097.72;10437210;28;20016;-77
2023/04/23 05:22:10;;;;;;;0.00;0.00;;;;;;;-145.06;100.00;94878.81;10420557;28;20032;-77
2023/04/23 05:27:11;;;;;;;0.10;0.10;;;;;;;-145.06;100.00;94809.25;10440504;28;20017;-76
2023/04/23 05:32:11;;;;;;;0.10;0.10;;;;;;;-145.06;100.00;94780.59;10435915;28;20014;-77
2023/04/23 05:37:12;;;;;;;0.00;0.00;;;;;;;-145.06;100.00;94655.78;10431494;28;20021;-76
2023/04/23 05:42:12;;;;;;;0.10;0.10;;;;;;;-145.06;100.00;94774.47;10431620;28;20020;-76
2023/04/23 05:47:13;;;;;;;0.10;0.10;;;;;;;-145.06;100.00;94635.34;10442732;28;20020;-77
2023/04/23 05:52:14;;;;;;;0.10;0.10;;;;;;;-145.06;100.00;94383.69;10409366;28;20091;-76
2023/04/23 05:57:14;;;;;;;0.10;0.10;;;;;;;-145.06;100.00;94021.63;10433965;28;20028;-76
2023/04/23 06:02:15;;;;;;;0.10;0.10;;;;;;;-145.06;100.00;93604.34;10414453;28;20369;-76
2023/04/23 06:07:15;;;;;;;0.10;0.10;;;;;;;-145.06;100.00;93385.50;10449539;28;20383;-77
2023/04/23 06:12:16;;;;;;;0.10;0.10;;;;;;;-145.06;100.00;93575.72;10441467;28;20476;-77
2023/04/23 06:17:17;;;;;;;0.03;0.03;;;;;;;-145.06;93.75;93522.53;10431558;28;20509;-76
2023/04/23 06:22:17;;;;;;;0.10;0.10;;;;;;;-145.06;92.74;93690.25;10432447;28;20105;-77
2023/04/23 06:27:17;;;;;;;0.10;0.10;;;;;;;-145.06;95.53;94101.41;10432025;28;20167;-77
2023/04/23 06:32:18;;;;;;;0.00;0.00;;;;;;;-145.06;100.00;94295.72;10411739;28;20099;-75
2023/04/23 06:37:18;;;;;;;0.10;0.10;;;;;;;-145.06;100.00;94387.78;10440256;28;20371;-77
2023/04/23 06:42:19;;;;;;;0.10;0.10;;;;;;;-145.06;100.00;94463.50;10429726;28;20051;-77
2023/04/23 06:47:19;;;;;;;0.10;0.10;;;;;;;-145.06;100.00;94395.97;10439597;28;20013;-77
2023/04/23 06:52:19;;;;;;;0.00;0.00;;;;;;;-145.06;100.00;94303.91;10414122;28;20040;-77
2023/04/23 06:57:20;;;;;;;0.10;0.10;;;;;;;-145.06;100.00;94428.72;10440403;28;20017;-77
2023/04/23 07:02:21;;;;;;;0.10;0.10;;;;;;;-145.06;100.00;94455.31;10414426;28;20021;-77
2023/04/23 07:07:21;;;;;;;0.10;0.10;;;;;;;-145.06;100.00;94481.91;10426805;28;20017;-77
2023/04/23 07:12:21;;;;;;;0.10;0.10;;;;;;;-145.06;100.00;94434.84;10427885;28;20111;-76
2023/04/23 07:17:22;;;;;;;0.10;0.10;;;;;;;-145.06;100.00;94436.88;10414918;28;20040;-76
2023/04/23 07:22:23;;;;;;;0.10;0.10;;;;;;;-145.06;100.00;94332.56;10429477;28;20022;-77
2023/04/23 07:27:24;;;;;;;0.10;0.10;;;;;;;-145.06;100.00;94246.63;10413305;28;20032;-77
2023/04/23 07:32:26;;;;;;;0.10;0.10;;;;;;;-145.06;100.00;94083.00;10431622;28;20632;-76
2023/04/23 07:37:27;;;;;;;0.10;0.10;;;;;;;-145.06;100.00;94152.53;10399026;28;20067;-77
2023/04/23 07:42:27;;;;;;;0.10;0.10;;;;;;;-145.06;100.00;94326.41;10398145;28;20075;-77
2023/04/23 07:47:27;;;;;;;0.10;0.10;;;;;;;-145.06;100.00;94312.09;10415368;28;20320;-77
2023/04/23 07:52:28;;;;;;;0.10;0.10;;;;;;;-145.06;100.00;94320.28;10416085;28;20515;-77
2023/04/23 07:57:28;;;;;;;0.10;0.10;;;;;;;-145.06;100.00;94318.25;10397072;28;20033;-77
2023/04/23 08:02:28;;;;;;;0.10;0.10;;;;;;;-145.06;100.00;94314.16;10420649;28;20033;-77
2023/04/23 08:07:29;;;;;;;0.10;0.10;;;;;;;-145.06;100.00;94289.59;10421251;28;20043;-76
2023/04/23 08:12:29;;;;;;;0.00;0.00;;;;;;;-145.06;100.00;94140.25;10406259;28;20108;-77
2023/04/23 08:17:30;;;;;;;0.10;0.10;;;;;;;-145.06;100.00;94187.31;10430571;28;20074;-77
2023/04/23 08:22:30;;;;;;;0.10;0.10;;;;;;;-145.06;100.00;94260.97;10442297;28;20051;-77
2023/04/23 08:27:30;;;;;;;0.10;0.10;;;;;;;-145.06;100.00;94177.09;10427080;28;20082;-77
2023/04/23 08:32:31;;;;;;;0.10;0.10;;;;;;;-145.06;100.00;94130.03;10429631;28;20022;-77
2023/04/23 08:37:31;;;;;;;0.10;0.10;;;;;;;-145.06;100.00;94044.13;10423299;28;20045;-77
2023/04/23 08:42:37;;;;;;;0.00;0.00;;;;;;;-145.06;100.00;94031.84;10428815;28;20345;-78
2023/04/23 08:47:43;;;;;;;0.10;0.10;;;;;;;-145.06;100.00;93821.16;10442436;28;20045;-78
2023/04/23 08:52:54;;;;;;;0.10;0.10;;;;;;;-145.06;94.68;93718.88;10425785;28;20029;-78
2023/04/23 08:57:57;;;;;;;0.10;0.10;;;;;;;-145.06;90.10;93608.44;10428876;28;20032;-78
2023/04/23 09:02:57;;;;;;;0.10;0.10;;;;;;;-145.06;88.11;93620.72;10428053;28;20029;-78
2023/04/23 09:07:58;;;;;;;0.00;0.00;;;;;;;-145.06;87.00;93821.16;10433623;28;20025;-78
2023/04/23 09:12:59;;;;;;;0.00;0.00;;;;;;;-145.06;91.76;93610.47;10425014;28;20025;-78
2023/04/23 09:18:00;;;;;;;0.10;0.10;;;;;;;-145.06;91.87;93819.13;10406516;28;20028;-77
2023/04/23 09:23:06;;;;;;;0.10;0.10;;;;;;;-145.06;85.52;93342.53;10435516;28;20029;-77
2023/04/23 09:28:11;;;;;;;0.10;0.10;;;;;;;-145.06;76.89;93457.09;10417671;28;20314;-77
2023/04/23 09:33:12;;;;;;;0.00;0.00;;;;;;;-145.06;73.98;93166.66;10422215;28;20052;-77
2023/04/23 09:38:13;;;;;;;0.00;0.00;;;;;;;-145.06;72.35;93117.56;10425486;28;20400;-77
2023/04/23 09:43:14;;;;;;;0.10;0.10;;;;;;;-145.06;69.82;93156.44;10402190;28;20014;-77
2023/04/23 09:48:14;;;;;;;0.00;0.00;;;;;;;-145.06;65.62;93197.34;10428223;28;20480;-77
2023/04/23 09:53:14;;;;;;;0.00;0.00;;;;;;;-145.06;67.08;93203.47;10428309;28;20538;-78
2023/04/23 09:58:14;;;;;;;0.10;0.10;;;;;;;-145.06;69.13;93205.53;10402509;28;20040;-78
2023/04/23 10:03:26;;;;;;;0.00;0.00;;;;;;;-145.06;63.30;93232.09;10411872;28;20055;-78
2023/04/23 10:08:26;;;;;;;0.00;0.00;;;;;;;-145.06;67.83;93309.81;10441076;28;20064;-78
2023/04/23 10:13:27;;;;;;;0.00;0.00;;;;;;;-145.06;71.38;93326.19;10420678;28;20146;-78
2023/04/23 10:18:31;;;;;;;0.10;0.10;;;;;;;-145.06;63.67;93346.63;10396593;28;20021;-78
2023/04/23 10:23:34;;;;;;;0.00;0.00;;;;;;;-145.06;66.98;93491.84;10400311;28;20026;-78
2023/04/23 10:28:35;;;;;;;0.00;0.00;;;;;;;-145.06;64.44;93430.50;10402058;28;20018;-78
2023/04/23 10:33:36;;;;;;;0.00;0.00;;;;;;;-145.06;63.42;93477.53;10405523;28;20017;-77
2023/04/23 10:38:37;;;;;;;0.00;0.00;;;;;;;-145.06;69.48;93502.06;10429681;28;20080;-77
2023/04/23 10:43:38;;;;;;;0.00;0.00;;;;;;;-145.06;66.88;93483.66;10426409;28;20029;-77
2023/04/23 10:48:51;;;;;;;0.00;0.00;;;;;;;-145.06;58.30;93479.59;10417868;28;20438;-76
2023/04/23 10:53:51;;;;;;;0.00;0.00;;;;;;;-145.06;60.86;93559.34;10397247;28;20067;-77
2023/04/23 10:58:51;;;;;;;0.00;0.00;;;;;;;-145.06;59.21;93547.06;10421759;28;20025;-76
2023/04/23 11:03:52;;;;;;;0.00;0.00;;;;;;;-145.06;57.37;93528.66;10406927;28;20473;-77
2023/04/23 11:08:55;;;;;;;0.10;0.10;;;;;;;-145.06;58.52;93487.75;10430363;28;20269;-77
2023/04/23 11:13:55;;;;;;;0.00;0.00;;;;;;;-145.06;54.30;93483.66;10401612;28;20472;-77
2023/04/23 11:19:02;;;;;;;0.00;0.00;;;;;;;-145.06;52.96;93551.16;10403661;28;20083;-78
2023/04/23 11:24:06;;;;;;;0.10;0.10;;;;;;;-145.06;55.67;93528.66;10409207;28;20040;-78
2023/04/23 11:29:07;;;;;;;0.00;0.00;;;;;;;-145.06;59.18;93596.16;10394408;28;20022;-77
2023/04/23 11:34:08;;;;;;;0.10;0.10;;;;;;;-145.06;57.58;93530.72;10393314;28;20026;-77
2023/04/23 11:39:09;;;;;;;0.00;0.00;;;;;;;-145.06;55.14;93495.94;10415165;28;20033;-77
2023/04/23 11:44:10;;;;;;;0.10;0.10;;;;;;;-145.06;55.57;93536.84;10436870;28;20033;-77
2023/04/23 11:49:12;;;;;;;0.00;0.00;;;;;;;-145.06;54.04;93643.22;10435444;28;20022;-77
2023/04/23 11:54:13;;;;;;;0.00;0.00;;;;;;;-145.06;56.32;93555.25;10436919;28;20553;-76
2023/04/23 11:59:13;;;;;;;0.10;0.10;;;;;;;-145.06;55.59;93563.44;10432024;28;20070;-77
2023/04/23 12:04:25;;;;;;;0.10;0.10;;;;;;;-145.06;59.16;93547.06;10421237;28;20056;-77
2023/04/23 12:09:27;;;;;;;0.00;0.00;;;;;;;-145.06;55.96;93524.56;10422431;23;20041;-76
2023/04/23 12:14:29;;;;;;;0.10;0.10;;;;;;;-145.06;54.68;93497.97;10394007;28;20036;-77
2023/04/23 12:19:30;;;;;;;0.00;0.00;;;;;;;-145.06;55.61;93530.72;10371476;28;20472;-76
2023/04/23 12:24:50;;;;;;;0.00;0.00;;;;;;;-145.06;56.51;93481.63;10372004;28;20222;-76
2023/04/23 12:29:59;;;;;;;0.00;0.00;;;;;;;-145.06;56.48;93430.50;10371259;28;20492;-76
2023/04/23 12:34:59;;;;;;;0.08;0.08;;;;;;;-145.06;53.86;93285.28;10371307;28;20169;-76
2023/04/23 12:39:59;;;;;;;0.00;0.00;;;;;;;-145.06;50.84;93322.09;10392417;28;20109;-77
2023/04/23 12:45:08;;;;;;;0.10;0.10;;;;;;;-145.06;51.34;93215.75;10371227;28;20060;-76
2023/04/23 12:50:09;;;;;;;0.00;0.00;;;;;;;-145.06;50.24;93448.91;10371338;28;20041;-76
2023/04/23 12:55:10;;;;;;;0.00;0.00;;;;;;;-145.06;53.81;93453.00;10371478;28;20026;-77
2023/04/23 13:00:11;;;;;;;0.00;0.00;;;;;;;-145.06;52.17;93459.13;10368086;28;20038;-77
2023/04/23 13:05:11;;;;;;;0.10;0.10;;;;;;;-145.06;50.97;93506.16;10370506;28;20076;-77
2023/04/23 13:10:12;;;;;;;0.00;0.00;;;;;;;-145.06;52.20;93477.53;10369533;28;20034;-77
2023/04/23 13:15:12;;;;;;;0.00;0.00;;;;;;;-145.06;54.28;93264.81;10353005;28;20384;-77
2023/04/23 13:20:12;;;;;;;0.00;0.00;;;;;;;-145.06;53.77;93248.47;10369434;28;20056;-76
2023/04/23 13:25:13;;;;;;;0.00;0.00;;;;;;;-145.06;52.50;93250.50;10374779;28;20093;-76
2023/04/23 13:30:13;;;;;;;0.00;0.00;;;;;;;-145.06;50.83;93293.47;10367416;28;20124;-76
2023/04/23 13:35:15;;;;;;;0.00;0.00;;;;;;;-145.06;51.19;93344.59;10369290;28;20468;-76
2023/04/23 13:40:16;;;;;;;0.10;0.10;;;;;;;-145.06;49.34;93324.13;10350700;28;20392;-75
2023/04/23 13:45:16;;;;;;;0.10;0.10;;;;;;;-145.06;47.39;93661.63;10370164;28;20113;-77
2023/04/23 13:50:17;;;;;;;0.10;0.10;;;;;;;-145.06;48.56;93549.13;10385186;28;20044;-76
2023/04/23 13:55:17;;;;;;;0.10;0.10;;;;;;;-145.06;47.54;93504.13;10380803;28;20261;-76
2023/04/23 14:00:17;;;;;;;0.10;0.10;;;;;;;-145.06;52.11;93579.81;10366972;28;21083;-77
2023/04/23 14:05:18;;;;;;;0.00;0.00;;;;;;;-145.06;53.09;93868.19;10369325;28;20476;-76
2023/04/23 14:10:18;;;;;;;0.03;0.03;;;;;;;-145.06;56.89;94234.38;10374325;28;20037;-76
2023/04/23 14:15:19;;;;;;;0.00;0.00;;;;;;;-145.06;54.67;93970.47;10371599;28;20021;-76
2023/04/23 14:20:19;;;;;;;0.00;0.00;;;;;;;-145.06;57.31;93804.78;10367398;28;20025;-76
2023/04/23 14:25:28;;;;;;;0.10;0.10;;;;;;;-145.06;56.20;94316.19;10366484;28;20366;-76
2023/04/23 14:30:28;;;;;;;0.00;0.00;;;;;;;-145.06;56.19;94391.88;10370136;28;20273;-76
2023/04/23 14:35:29;;;;;;;0.10;0.10;;;;;;;-145.06;55.33;93917.28;10387675;28;20018;-77
2023/04/23 14:40:29;;;;;;;0.05;0.05;;;;;;;-145.06;58.74;94031.84;10370991;28;20029;-76
2023/04/23 14:45:31;;;;;;;0.00;0.00;;;;;;;-145.06;60.89;94152.53;10375096;28;20032;-76
2023/04/23 14:50:32;;;;;;;0.10;0.10;;;;;;;-145.06;60.19;93798.66;10366616;28;20416;-76
2023/04/23 14:55:33;;;;;;;0.00;0.00;;;;;;;-145.06;56.24;93710.69;10369693;28;20021;-76
2023/04/23 15:00:33;;;;;;;0.10;0.10;;;;;;;-145.06;57.14;93688.19;10366296;28;20030;-76
2023/04/23 15:05:33;;;;;;;0.07;0.07;;;;;;;-145.06;55.59;93596.16;10366991;28;20028;-76
2023/04/23 15:10:34;;;;;;;0.10;0.10;;;;;;;-145.06;53.56;93549.13;10373794;28;20041;-76
2023/04/23 15:15:41;;;;;;;0.10;0.10;;;;;;;-145.06;49.76;93608.44;10374630;28;20513;-76
2023/04/23 15:20:43;;;;;;;0.00;0.00;;;;;;;-145.06;55.32;93757.75;10370693;28;20077;-76
2023/04/23 15:25:43;;;;;;;0.00;0.00;;;;;;;-145.06;56.98;93759.78;10373873;28;20013;-76
2023/04/23 15:30:44;;;;;;;0.00;0.00;;;;;;;-145.06;61.01;93800.69;10378584;28;20030;-76
2023/04/23 15:35:44;;;;;;;0.00;0.00;;;;;;;-145.06;65.77;93866.16;10383854;28;20026;-76
2023/04/23 15:40:45;;;;;;;0.10;0.10;;;;;;;-145.06;68.46;93884.56;10371907;28;20017;-76
2023/04/23 15:45:47;;;;;;;0.00;0.00;;;;;;;-145.06;69.27;93880.47;10355763;28;20377;-76
2023/04/23 15:50:47;;;;;;;0.10;0.10;;;;;;;-145.06;68.70;93919.34;10353641;28;20029;-76
2023/04/23 15:55:50;;;;;;;0.00;0.00;;;;;;;-145.06;64.13;93954.13;10372822;28;20014;-76
2023/04/23 16:00:50;;;;;;;0.03;0.03;;;;;;;-145.06;66.73;94021.63;10372747;28;20032;-76
2023/04/23 16:05:51;;;;;;;0.10;0.10;;;;;;;-145.06;66.34;94062.53;10373657;28;20014;-75
2023/04/23 16:10:51;;;;;;;0.10;0.10;;;;;;;-145.06;70.55;94148.44;10373256;28;20485;-76
2023/04/23 16:15:51;;;;;;;0.00;0.00;;;;;;;-145.06;74.13;94305.97;10377206;28;20017;-75
2023/04/23 16:20:52;;;;;;;0.00;0.00;;;;;;;-145.06;78.04;94269.13;10380916;28;20110;-76
2023/04/23 16:25:53;;;;;;;0.10;0.10;;;;;;;-145.06;80.66;94447.13;10371161;28;20277;-77
2023/04/23 16:30:53;;;;;;;0.00;0.00;;;;;;;-145.06;81.13;94799.00;10363394;28;20041;-77
2023/04/23 16:35:55;;;;;;;0.10;0.10;;;;;;;-145.06;79.52;94909.50;10373019;28;20040;-74
2023/04/23 16:40:56;;;;;;;0.10;0.10;;;;;;;-145.06;82.07;94985.19;10374996;28;20559;-76
2023/04/23 16:45:56;;;;;;;0.07;0.07;;;;;;;-145.06;84.30;95048.63;10370088;28;20018;-75
2023/04/23 16:50:57;;;;;;;0.10;0.10;;;;;;;-145.06;76.04;95048.63;10352060;28;20044;-76
2023/04/23 16:55:57;;;;;;;0.00;0.00;;;;;;;-145.06;75.77;95054.75;10361677;28;20039;-76
2023/04/23 17:00:57;;;;;;;0.10;0.10;;;;;;;-145.06;76.01;95069.09;10359865;28;20033;-76
2023/04/23 17:06:08;;;;;;;0.10;0.10;;;;;;;-145.06;77.46;95097.72;10360022;28;20036;-75
2023/04/23 17:11:09;;;;;;;0.10;0.10;;;;;;;-145.06;78.42;95065.00;10363917;28;20033;-75
2023/04/23 17:16:09;;;;;;;0.10;0.10;;;;;;;-145.06;81.77;95152.97;10384237;28;20026;-75
2023/04/23 17:21:10;;;;;;;0.10;0.10;;;;;;;-145.06;86.95;95163.22;10396431;28;20500;-75
2023/04/23 17:26:10;;;;;;;0.00;0.00;;;;;;;-145.06;96.19;95224.59;10381212;28;20028;-75
2023/04/23 17:31:11;;;;;;;0.10;0.10;;;;;;;-145.06;100.00;95320.75;10375202;28;20125;-75
2023/04/23 17:36:11;;;;;;;0.10;0.10;;;;;;;-145.06;100.00;95322.81;10382921;28;20406;-76
2023/04/23 17:41:11;;;;;;;0.10;0.10;;;;;;;-145.06;100.00;95355.56;10367291;28;20461;-76
2023/04/23 17:46:12;;;;;;;0.10;0.10;;;;;;;-145.06;100.00;95365.78;10377042;28;20032;-76
2023/04/23 17:51:12;;;;;;;0.00;0.00;;;;;;;-145.06;100.00;95392.38;10351212;28;20437;-75
2023/04/23 17:56:19;;;;;;;0.10;0.10;;;;;;;-145.06;100.00;95425.13;10483511;28;20391;-76
2023/04/23 18:01:20;;;;;;;0.10;0.10;;;;;;;-145.06;100.00;95398.53;10450108;28;20029;-76
2023/04/23 18:06:21;;;;;;;0.00;0.00;;;;;;;-145.06;100.00;95453.78;10441689;28;20472;-76
2023/04/23 18:11:21;;;;;;;0.10;0.10;;;;;;;-145.06;100.00;95414.88;10458297;28;20650;-76
2023/04/23 18:16:22;;;;;;;0.10;0.10;;;;;;;-145.06;100.00;95484.47;10462990;28;20024;-75
2023/04/23 18:21:22;;;;;;;0.10;0.10;;;;;;;-145.06;100.00;95525.38;10469956;22;20052;-78
2023/04/23 18:26:23;;;;;;;0.10;0.10;;;;;;;-145.06;100.00;95547.91;10460217;28;20046;-78
2023/04/23 18:31:23;;;;;;;0.10;0.10;;;;;;;-145.06;100.00;95552.00;10465857;28;20120;-78
2023/04/23 18:36:31;;;;;;;0.10;0.10;;;;;;;-145.06;100.00;95609.28;10469912;28;20279;-77
2023/04/23 18:41:31;;;;;;;0.00;0.00;;;;;;;-145.06;100.00;95574.50;10440553;28;20218;-78
2023/04/23 18:46:32;;;;;;;0.10;0.10;;;;;;;-145.06;100.00;95564.28;10458610;28;20033;-77
2023/04/23 18:51:41;;;;;;;0.10;0.10;;;;;;;-145.06;100.00;95556.09;10449299;28;20270;-77
2023/04/23 18:56:41;;;;;;;0.10;0.10;;;;;;;-145.06;100.00;95537.66;10446819;28;20340;-77
2023/04/23 19:01:43;;;;;;;0.10;0.10;;;;;;;-145.06;100.00;95539.72;10465825;28;20021;-78
2023/04/23 19:06:43;;;;;;;0.10;0.10;;;;;;;-145.06;100.00;95554.03;10429913;28;20025;-78
2023/04/23 19:11:44;;;;;;;0.10;0.10;;;;;;;-145.06;100.00;95582.69;10424912;28;20067;-77
2023/04/23 19:16:45;;;;;;;0.10;0.10;;;;;;;-145.06;100.00;95564.28;10438188;28;20396;-78
2023/04/23 19:21:45;;;;;;;0.00;0.00;;;;;;;-145.06;100.00;95635.91;10422346;28;20052;-78
2023/04/23 19:26:46;;;;;;;0.10;0.10;;;;;;;-145.06;100.00;95627.72;10429810;28;20025;-77
2023/04/23 19:31:46;;;;;;;0.00;0.00;;;;;;;-145.06;100.00;95666.59;10440806;28;20025;-78
2023/04/23 19:36:46;;;;;;;0.03;0.03;;;;;;;-145.06;100.00;95660.44;10435160;28;20264;-77
2023/04/23 19:41:47;;;;;;;0.10;0.10;;;;;;;-145.06;100.00;95750.50;10428147;28;20021;-78
2023/04/23 19:46:47;;;;;;;0.10;0.10;;;;;;;-145.06;100.00;95748.44;10433610;28;20460;-78
2023/04/23 19:51:48;;;;;;;0.10;0.10;;;;;;;-145.06;100.00;95777.09;10424921;28;20025;-78
2023/04/23 19:56:48;;;;;;;0.08;0.08;;;;;;;-145.06;100.00;95746.41;10432914;28;20021;-77
2023/04/23 20:01:50;;;;;;;0.10;0.10;;;;;;;-145.06;100.00;95734.13;10425855;28;20013;-78
2023/04/23 20:06:50;;;;;;;0.10;0.10;;;;;;;-145.06;100.00;95787.34;10424880;28;20009;-77
2023/04/23 20:11:51;;;;;;;0.10;0.10;;;;;;;-145.06;100.00;95752.53;10427371;28;20507;-77
2023/04/23 20:16:52;;;;;;;0.10;0.10;;;;;;;-145.06;100.00;95777.09;10428158;28;20032;-77
2023/04/23 20:21:52;;;;;;;0.10;0.10;;;;;;;-145.06;100.00;95773.00;10416847;28;20022;-78
2023/04/23 20:26:53;;;;;;;0.10;0.10;;;;;;;-145.06;100.00;95795.53;10419273;28;20029;-77
2023/04/23 20:31:53;;;;;;;0.10;0.10;;;;;;;-145.06;100.00;95805.75;10411816;28;20018;-78
2023/04/23 20:36:53;;;;;;;0.05;0.05;;;;;;;-145.06;100.00;95822.13;10414936;28;20387;-78
2023/04/23 20:41:55;;;;;;;0.10;0.10;;;;;;;-145.06;100.00;95813.94;10423392;28;20029;-78
2023/04/23 20:46:56;;;;;;;0.08;0.08;;;;;;;-145.06;100.00;95801.66;10437613;28;20487;-78
2023/04/23 20:51:57;;;;;;;0.10;0.10;;;;;;;-145.06;100.00;95846.69;10428075;28;20024;-78
2023/04/23 20:56:58;;;;;;;0.10;0.10;;;;;;;-145.06;100.00;95842.59;10425317;28;20095;-78
2023/04/23 21:01:58;;;;;;;0.03;0.03;;;;;;;-145.06;100.00;95871.25;10429774;28;20417;-78
2023/04/23 21:06:58;;;;;;;0.00;0.00;;;;;;;-145.06;100.00;95863.06;10428822;28;20077;-78
2023/04/23 21:11:59;;;;;;;0.10;0.10;;;;;;;-145.06;100.00;95881.47;10416444;28;20099;-78
2023/04/23 21:17:00;;;;;;;0.10;0.10;;;;;;;-145.06;100.00;95858.97;10400320;28;20280;-78
2023/04/23 21:22:00;;;;;;;0.10;0.10;;;;;;;-145.06;100.00;95867.16;10426346;28;20022;-77
2023/04/23 21:27:02;;;;;;;0.00;0.00;;;;;;;-145.06;100.00;95863.06;10424977;28;20384;-78
2023/04/23 21:32:02;;;;;;;0.10;0.10;;;;;;;-145.06;100.00;95858.97;10428057;28;20051;-77
2023/04/23 21:37:03;;;;;;;0.10;0.10;;;;;;;-145.06;100.00;95836.44;10411891;28;20036;-77
2023/04/23 21:42:03;;;;;;;0.00;0.00;;;;;;;-145.06;100.00;95805.75;10389362;28;20427;-78
2023/04/23 21:47:05;;;;;;;0.00;0.00;;;;;;;-145.06;100.00;95865.09;10407448;28;20037;-78
2023/04/23 21:52:07;;;;;;;0.10;0.10;;;;;;;-145.06;100.00;95846.69;10422574;28;20025;-77
2023/04/23 21:57:08;;;;;;;0.03;0.03;;;;;;;-145.06;100.00;95813.94;10429259;28;20070;-77
2023/04/23 22:02:08;;;;;;;0.00;0.00;;;;;;;-145.06;100.00;95883.53;10432319;28;20083;-77
2023/04/23 22:07:11;;;;;;;0.10;0.10;;;;;;;-145.06;100.00;95873.28;10435903;28;20271;-76
2023/04/23 22:12:11;;;;;;;0.10;0.10;;;;;;;-145.06;100.00;95953.09;10432951;28;20028;-76
2023/04/23 22:17:12;;;;;;;0.10;0.10;;;;;;;-145.06;100.00;95916.25;10433183;28;20399;-76
2023/04/23 22:22:12;;;;;;;0.03;0.03;;;;;;;-145.06;100.00;95899.88;10428915;28;20036;-76
2023/04/23 22:27:13;;;;;;;0.10;0.10;;;;;;;-145.06;100.00;95910.13;10439638;28;20029;-77
2023/04/23 22:32:13;;;;;;;0.10;0.10;;;;;;;-145.06;100.00;95906.03;10440924;28;20383;-77
2023/04/23 22:37:14;;;;;;;0.10;0.10;;;;;;;-145.06;100.00;95928.53;10422571;28;20039;-77